sensor_id;sensor_type;location;lat;lon;timestamp;pressure;altitude;pressure_sealevel;temperature;humidity
40918;BME280;26644;50.248;19.032;2024-02-21T00:00:48;98791.72;;;6.19;73.78
40918;BME280;26644;50.248;19.032;2024-02-21T00:03:53;98795.41;;;6.13;73.86
40918;BME280;26644;50.248;19.032;2024-02-21T00:06:58;98788.22;;;6.07;74.10
40918;BME280;26644;50.248;19.032;2024-02-21T00:10:07;98772.22;;;5.99;74.62
40918;BME280;26644;50.248;19.032;2024-02-21T00:13:12;98785.97;;;5.92;75.18
40918;BME280;26644;50.248;19.032;2024-02-21T00:16:17;98786.47;;;5.89;74.91
40918;BME280;26644;50.248;19.032;2024-02-21T00:19:21;98771.44;;;5.86;74.84
40918;BME280;26644;50.248;19.032;2024-02-21T00:22:26;98782.69;;;5.90;75.04
40918;BME280;26644;50.248;19.032;2024-02-21T00:25:34;98783.03;;;5.93;74.87
40918;BME280;26644;50.248;19.032;2024-02-21T00:28:39;98777.66;;;5.99;74.36
40918;BME280;26644;50.248;19.032;2024-02-21T00:31:43;98782.16;;;6.05;74.32
40918;BME280;26644;50.248;19.032;2024-02-21T00:34:49;98769.59;;;6.04;74.14
40918;BME280;26644;50.248;19.032;2024-02-21T00:37:53;98769.13;;;6.07;74.30
40918;BME280;26644;50.248;19.032;2024-02-21T00:41:01;98770.75;;;6.08;73.96
40918;BME280;26644;50.248;19.032;2024-02-21T00:44:05;98760.09;;;6.06;74.17
40918;BME280;26644;50.248;19.032;2024-02-21T00:47:12;98753.25;;;6.04;74.21
40918;BME280;26644;50.248;19.032;2024-02-21T00:50:16;98761.53;;;6.09;73.86
40918;BME280;26644;50.248;19.032;2024-02-21T00:53:21;98757.38;;;6.06;74.14
40918;BME280;26644;50.248;19.032;2024-02-21T00:56:28;98758.47;;;6.05;74.50
40918;BME280;26644;50.248;19.032;2024-02-21T00:59:33;98751.94;;;6.06;74.70
40918;BME280;26644;50.248;19.032;2024-02-21T01:02:37;98748.03;;;6.02;74.46
40918;BME280;26644;50.248;19.032;2024-02-21T01:05:42;98743.44;;;6.03;74.89
40918;BME280;26644;50.248;19.032;2024-02-21T01:08:46;98742.59;;;6.02;75.00
40918;BME280;26644;50.248;19.032;2024-02-21T01:11:54;98748.88;;;6.03;75.26
40918;BME280;26644;50.248;19.032;2024-02-21T01:14:58;98744.75;;;6.00;75.23
40918;BME280;26644;50.248;19.032;2024-02-21T01:18:04;98734.78;;;5.94;75.09
40918;BME280;26644;50.248;19.032;2024-02-21T01:21:08;98739.06;;;5.90;75.55
40918;BME280;26644;50.248;19.032;2024-02-21T01:24:13;98746.91;;;5.86;75.69
40918;BME280;26644;50.248;19.032;2024-02-21T01:27:20;98743.81;;;5.83;75.67
40918;BME280;26644;50.248;19.032;2024-02-21T01:30:25;98735.44;;;5.84;76.07
40918;BME280;26644;50.248;19.032;2024-02-21T01:33:29;98733.53;;;5.85;75.83
40918;BME280;26644;50.248;19.032;2024-02-21T01:36:36;98724.84;;;5.88;75.54
40918;BME280;26644;50.248;19.032;2024-02-21T01:39:42;98724.59;;;5.89;75.68
40918;BME280;26644;50.248;19.032;2024-02-21T01:42:49;98723.53;;;5.90;75.49
40918;BME280;26644;50.248;19.032;2024-02-21T01:45:56;98720.00;;;5.90;75.45
40918;BME280;26644;50.248;19.032;2024-02-21T01:49:02;98712.88;;;5.89;75.73
40918;BME280;26644;50.248;19.032;2024-02-21T01:52:07;98701.06;;;5.83;75.24
40918;BME280;26644;50.248;19.032;2024-02-21T01:55:16;98701.22;;;5.76;75.36
40918;BME280;26644;50.248;19.032;2024-02-21T01:58:25;98698.63;;;5.70;75.38
40918;BME280;26644;50.248;19.032;2024-02-21T02:01:31;98711.06;;;5.66;76.02
40918;BME280;26644;50.248;19.032;2024-02-21T02:04:37;98709.97;;;5.67;75.72
40918;BME280;26644;50.248;19.032;2024-02-21T02:07:43;98707.50;;;5.65;75.89
40918;BME280;26644;50.248;19.032;2024-02-21T02:10:47;98704.41;;;5.61;75.82
40918;BME280;26644;50.248;19.032;2024-02-21T02:13:54;98702.69;;;5.55;75.79
40918;BME280;26644;50.248;19.032;2024-02-21T02:16:58;98708.59;;;5.52;76.43
40918;BME280;26644;50.248;19.032;2024-02-21T02:20:04;98703.06;;;5.47;76.38
40918;BME280;26644;50.248;19.032;2024-02-21T02:23:11;98703.75;;;5.42;76.67
40918;BME280;26644;50.248;19.032;2024-02-21T02:26:21;98704.00;;;5.41;77.11
40918;BME280;26644;50.248;19.032;2024-02-21T02:29:25;98704.25;;;5.39;76.75
40918;BME280;26644;50.248;19.032;2024-02-21T02:32:30;98693.59;;;5.38;76.75
40918;BME280;26644;50.248;19.032;2024-02-21T02:35:34;98685.63;;;5.36;77.24
40918;BME280;26644;50.248;19.032;2024-02-21T02:38:39;98680.19;;;5.36;77.37
40918;BME280;26644;50.248;19.032;2024-02-21T02:41:46;98684.00;;;5.35;77.32
40918;BME280;26644;50.248;19.032;2024-02-21T02:44:51;98681.50;;;5.34;77.05
40918;BME280;26644;50.248;19.032;2024-02-21T02:47:56;98679.50;;;5.29;77.52
40918;BME280;26644;50.248;19.032;2024-02-21T02:51:00;98674.88;;;5.30;77.18
40918;BME280;26644;50.248;19.032;2024-02-21T02:54:05;98679.50;;;5.29;77.16
40918;BME280;26644;50.248;19.032;2024-02-21T02:57:12;98666.59;;;5.24;77.30
40918;BME280;26644;50.248;19.032;2024-02-21T03:00:17;98670.53;;;5.28;77.21
40918;BME280;26644;50.248;19.032;2024-02-21T03:03:22;98672.41;;;5.28;77.09
40918;BME280;26644;50.248;19.032;2024-02-21T03:06:26;98663.66;;;5.26;77.36
40918;BME280;26644;50.248;19.032;2024-02-21T03:09:31;98669.44;;;5.30;77.55
40918;BME280;26644;50.248;19.032;2024-02-21T03:12:39;98661.88;;;5.32;77.43
40918;BME280;26644;50.248;19.032;2024-02-21T03:15:43;98664.84;;;5.30;77.65
40918;BME280;26644;50.248;19.032;2024-02-21T03:18:48;98662.56;;;5.27;77.35
40918;BME280;26644;50.248;19.032;2024-02-21T03:21:52;98670.75;;;5.27;77.38
40918;BME280;26644;50.248;19.032;2024-02-21T03:24:58;98670.97;;;5.25;77.61
40918;BME280;26644;50.248;19.032;2024-02-21T03:28:05;98666.59;;;5.24;77.90
40918;BME280;26644;50.248;19.032;2024-02-21T03:31:11;98661.16;;;5.24;78.16
40918;BME280;26644;50.248;19.032;2024-02-21T03:34:15;98659.03;;;5.26;77.82
40918;BME280;26644;50.248;19.032;2024-02-21T03:37:20;98663.19;;;5.29;77.53
40918;BME280;26644;50.248;19.032;2024-02-21T03:40:25;98664.34;;;5.33;77.54
40918;BME280;26644;50.248;19.032;2024-02-21T03:43:32;98665.16;;;5.34;77.41
40918;BME280;26644;50.248;19.032;2024-02-21T03:46:36;98660.31;;;5.36;77.28
40918;BME280;26644;50.248;19.032;2024-02-21T03:49:41;98661.13;;;5.36;77.26
40918;BME280;26644;50.248;19.032;2024-02-21T03:52:45;98648.81;;;5.34;77.27
40918;BME280;26644;50.248;19.032;2024-02-21T03:55:50;98655.94;;;5.35;77.24
40918;BME280;26644;50.248;19.032;2024-02-21T03:58:58;98662.44;;;5.34;77.51
40918;BME280;26644;50.248;19.032;2024-02-21T04:02:03;98666.59;;;5.36;77.68
40918;BME280;26644;50.248;19.032;2024-02-21T04:05:09;98656.03;;;5.40;77.38
40918;BME280;26644;50.248;19.032;2024-02-21T04:08:15;98654.25;;;5.45;77.33
40918;BME280;26644;50.248;19.032;2024-02-21T04:11:19;98648.59;;;5.47;77.42
40918;BME280;26644;50.248;19.032;2024-02-21T04:14:27;98652.72;;;5.50;76.84
40918;BME280;26644;50.248;19.032;2024-02-21T04:17:31;98641.84;;;5.50;77.30
40918;BME280;26644;50.248;19.032;2024-02-21T04:20:36;98648.19;;;5.55;76.90
40918;BME280;26644;50.248;19.032;2024-02-21T04:23:40;98647.72;;;5.58;76.84
40918;BME280;26644;50.248;19.032;2024-02-21T04:26:45;98638.72;;;5.58;76.78
40918;BME280;26644;50.248;19.032;2024-02-21T04:29:51;98648.88;;;5.63;76.20
40918;BME280;26644;50.248;19.032;2024-02-21T04:32:57;98645.84;;;5.59;76.40
40918;BME280;26644;50.248;19.032;2024-02-21T04:36:01;98653.50;;;5.62;76.56
40918;BME280;26644;50.248;19.032;2024-02-21T04:39:07;98649.94;;;5.61;76.38
40918;BME280;26644;50.248;19.032;2024-02-21T04:42:11;98644.63;;;5.55;76.29
40918;BME280;26644;50.248;19.032;2024-02-21T04:45:18;98642.91;;;5.49;76.60
40918;BME280;26644;50.248;19.032;2024-02-21T04:48:22;98634.25;;;5.40;76.75
40918;BME280;26644;50.248;19.032;2024-02-21T04:51:27;98627.28;;;5.32;77.46
40918;BME280;26644;50.248;19.032;2024-02-21T04:54:31;98636.19;;;5.27;77.53
40918;BME280;26644;50.248;19.032;2024-02-21T04:57:37;98613.50;;;5.22;77.64
40918;BME280;26644;50.248;19.032;2024-02-21T05:00:43;98619.75;;;5.22;77.87
40918;BME280;26644;50.248;19.032;2024-02-21T05:03:48;98621.06;;;5.20;77.81
40918;BME280;26644;50.248;19.032;2024-02-21T05:06:52;98610.91;;;5.15;77.79
40918;BME280;26644;50.248;19.032;2024-02-21T05:09:57;98616.81;;;5.12;78.08
40918;BME280;26644;50.248;19.032;2024-02-21T05:13:02;98607.47;;;5.08;78.19
40918;BME280;26644;50.248;19.032;2024-02-21T05:16:10;98606.28;;;5.04;78.37
40918;BME280;26644;50.248;19.032;2024-02-21T05:19:14;98605.47;;;5.03;78.50
40918;BME280;26644;50.248;19.032;2024-02-21T05:22:19;98612.78;;;5.03;78.41
40918;BME280;26644;50.248;19.032;2024-02-21T05:25:23;98610.91;;;5.03;78.39
40918;BME280;26644;50.248;19.032;2024-02-21T05:28:28;98606.88;;;5.06;78.47
40918;BME280;26644;50.248;19.032;2024-02-21T05:31:56;98598.72;;;5.06;78.49
40918;BME280;26644;50.248;19.032;2024-02-21T05:35:01;98593.50;;;5.04;78.01
40918;BME280;26644;50.248;19.032;2024-02-21T05:38:06;98604.97;;;5.06;78.32
40918;BME280;26644;50.248;19.032;2024-02-21T05:41:13;98601.66;;;5.04;78.27
40918;BME280;26644;50.248;19.032;2024-02-21T05:44:17;98595.66;;;5.02;78.19
40918;BME280;26644;50.248;19.032;2024-02-21T05:47:26;98590.66;;;4.99;78.30
40918;BME280;26644;50.248;19.032;2024-02-21T05:50:30;98594.13;;;4.94;78.32
40918;BME280;26644;50.248;19.032;2024-02-21T05:53:35;98608.09;;;4.98;78.47
40918;BME280;26644;50.248;19.032;2024-02-21T05:56:44;98604.06;;;5.01;78.64
40918;BME280;26644;50.248;19.032;2024-02-21T05:59:49;98594.34;;;5.05;78.37
40918;BME280;26644;50.248;19.032;2024-02-21T06:02:56;98600.22;;;5.14;78.06
40918;BME280;26644;50.248;19.032;2024-02-21T06:06:02;98594.56;;;5.15;78.21
40918;BME280;26644;50.248;19.032;2024-02-21T06:09:06;98594.06;;;5.18;78.10
40918;BME280;26644;50.248;19.032;2024-02-21T06:12:11;98602.00;;;5.20;78.29
40918;BME280;26644;50.248;19.032;2024-02-21T06:15:15;98584.59;;;5.21;78.11
40918;BME280;26644;50.248;19.032;2024-02-21T06:18:23;98589.66;;;5.29;78.00
40918;BME280;26644;50.248;19.032;2024-02-21T06:21:29;98595.22;;;5.34;78.14
40918;BME280;26644;50.248;19.032;2024-02-21T06:24:34;98595.31;;;5.39;77.76
40918;BME280;26644;50.248;19.032;2024-02-21T06:27:38;98594.00;;;5.42;77.93
40918;BME280;26644;50.248;19.032;2024-02-21T06:30:43;98595.66;;;5.43;77.78
40918;BME280;26644;50.248;19.032;2024-02-21T06:33:50;98598.47;;;5.48;77.69
40918;BME280;26644;50.248;19.032;2024-02-21T06:36:55;98600.13;;;5.49;77.71
40918;BME280;26644;50.248;19.032;2024-02-21T06:39:59;98600.25;;;5.54;77.92
40918;BME280;26644;50.248;19.032;2024-02-21T06:43:05;98590.16;;;5.55;77.60
40918;BME280;26644;50.248;19.032;2024-02-21T06:46:09;98597.38;;;5.61;77.10
40918;BME280;26644;50.248;19.032;2024-02-21T06:49:17;98580.47;;;5.59;77.01
40918;BME280;26644;50.248;19.032;2024-02-21T06:52:21;98596.06;;;5.64;76.97
40918;BME280;26644;50.248;19.032;2024-02-21T06:55:27;98599.44;;;5.71;76.65
40918;BME280;26644;50.248;19.032;2024-02-21T06:58:31;98605.84;;;5.76;76.52
40918;BME280;26644;50.248;19.032;2024-02-21T07:01:36;98593.13;;;5.82;76.58
40918;BME280;26644;50.248;19.032;2024-02-21T07:04:43;98588.13;;;5.91;76.14
40918;BME280;26644;50.248;19.032;2024-02-21T07:07:48;98601.00;;;5.95;76.41
40918;BME280;26644;50.248;19.032;2024-02-21T07:10:53;98598.63;;;5.99;75.57
40918;BME280;26644;50.248;19.032;2024-02-21T07:13:58;98596.72;;;6.00;75.79
40918;BME280;26644;50.248;19.032;2024-02-21T07:17:02;98601.91;;;6.01;75.91
40918;BME280;26644;50.248;19.032;2024-02-21T07:20:11;98599.78;;;6.03;75.76
40918;BME280;26644;50.248;19.032;2024-02-21T07:23:15;98593.84;;;6.06;75.70
40918;BME280;26644;50.248;19.032;2024-02-21T07:26:21;98593.84;;;6.06;75.75
40918;BME280;26644;50.248;19.032;2024-02-21T07:29:25;98591.69;;;6.08;75.64
40918;BME280;26644;50.248;19.032;2024-02-21T07:32:30;98590.13;;;6.13;75.49
40918;BME280;26644;50.248;19.032;2024-02-21T07:35:38;98586.91;;;6.16;75.31
40918;BME280;26644;50.248;19.032;2024-02-21T07:38:43;98583.44;;;6.20;74.78
40918;BME280;26644;50.248;19.032;2024-02-21T07:41:48;98579.22;;;6.30;75.09
40918;BME280;26644;50.248;19.032;2024-02-21T07:44:53;98567.31;;;6.36;74.44
40918;BME280;26644;50.248;19.032;2024-02-21T07:47:58;98578.41;;;6.46;74.33
40918;BME280;26644;50.248;19.032;2024-02-21T07:51:06;98578.47;;;6.51;74.20
40918;BME280;26644;50.248;19.032;2024-02-21T07:54:11;98576.16;;;6.60;73.77
40918;BME280;26644;50.248;19.032;2024-02-21T07:57:16;98580.41;;;6.90;73.37
40918;BME280;26644;50.248;19.032;2024-02-21T08:00:21;98567.06;;;7.33;72.23
40918;BME280;26644;50.248;19.032;2024-02-21T08:03:27;98566.09;;;7.99;71.26
40918;BME280;26644;50.248;19.032;2024-02-21T08:06:34;98573.53;;;8.73;68.40
40918;BME280;26644;50.248;19.032;2024-02-21T08:09:40;98572.88;;;9.67;66.73
40918;BME280;26644;50.248;19.032;2024-02-21T08:12:44;98567.16;;;11.03;63.47
40918;BME280;26644;50.248;19.032;2024-02-21T08:15:50;98572.91;;;12.17;59.15
40918;BME280;26644;50.248;19.032;2024-02-21T08:18:54;98583.63;;;13.11;55.99
40918;BME280;26644;50.248;19.032;2024-02-21T08:22:02;98575.50;;;13.25;53.99
40918;BME280;26644;50.248;19.032;2024-02-21T08:25:08;98572.16;;;13.04;53.65
40918;BME280;26644;50.248;19.032;2024-02-21T08:28:13;98562.09;;;12.89;54.33
40918;BME280;26644;50.248;19.032;2024-02-21T08:31:21;98557.28;;;12.76;53.82
40918;BME280;26644;50.248;19.032;2024-02-21T08:34:30;98559.00;;;12.67;54.56
40918;BME280;26644;50.248;19.032;2024-02-21T08:37:37;98558.00;;;12.57;54.84
40918;BME280;26644;50.248;19.032;2024-02-21T08:40:44;98546.88;;;12.38;54.63
40918;BME280;26644;50.248;19.032;2024-02-21T08:43:49;98547.50;;;11.90;55.06
40918;BME280;26644;50.248;19.032;2024-02-21T08:46:56;98537.31;;;11.41;56.56
40918;BME280;26644;50.248;19.032;2024-02-21T08:50:01;98542.69;;;11.06;57.41
40918;BME280;26644;50.248;19.032;2024-02-21T08:53:10;98537.28;;;10.81;58.51
40918;BME280;26644;50.248;19.032;2024-02-21T08:56:15;98525.63;;;11.15;58.62
40918;BME280;26644;50.248;19.032;2024-02-21T08:59:20;98524.50;;;11.71;58.01
40918;BME280;26644;50.248;19.032;2024-02-21T09:02:25;98532.63;;;12.31;56.99
40918;BME280;26644;50.248;19.032;2024-02-21T09:05:31;98537.53;;;12.93;54.74
40918;BME280;26644;50.248;19.032;2024-02-21T09:08:38;98528.50;;;14.31;52.00
40918;BME280;26644;50.248;19.032;2024-02-21T09:11:44;98534.88;;;15.99;47.22
40918;BME280;26644;50.248;19.032;2024-02-21T09:14:48;98530.44;;;16.57;44.97
40918;BME280;26644;50.248;19.032;2024-02-21T09:17:54;98545.38;;;16.24;44.79
40918;BME280;26644;50.248;19.032;2024-02-21T09:20:58;98539.63;;;15.62;45.52
40918;BME280;26644;50.248;19.032;2024-02-21T09:24:07;98539.41;;;15.02;46.84
40918;BME280;26644;50.248;19.032;2024-02-21T09:27:11;98535.91;;;14.69;47.32
40918;BME280;26644;50.248;19.032;2024-02-21T09:30:16;98541.66;;;15.00;47.39
40918;BME280;26644;50.248;19.032;2024-02-21T09:33:21;98545.00;;;15.67;45.59
40918;BME280;26644;50.248;19.032;2024-02-21T09:36:26;98546.59;;;15.59;45.63
40918;BME280;26644;50.248;19.032;2024-02-21T09:39:33;98543.59;;;15.14;46.18
40918;BME280;26644;50.248;19.032;2024-02-21T09:42:39;98543.53;;;14.58;46.91
40918;BME280;26644;50.248;19.032;2024-02-21T09:45:46;98540.09;;;13.95;48.15
40918;BME280;26644;50.248;19.032;2024-02-21T09:49:13;98539.31;;;13.32;50.05
40918;BME280;26644;50.248;19.032;2024-02-21T09:52:26;98544.22;;;12.87;51.18
40918;BME280;26644;50.248;19.032;2024-02-21T09:55:38;98546.22;;;12.52;52.54
40918;BME280;26644;50.248;19.032;2024-02-21T09:58:44;98534.34;;;12.22;53.66
40918;BME280;26644;50.248;19.032;2024-02-21T10:01:51;98533.13;;;12.04;53.67
40918;BME280;26644;50.248;19.032;2024-02-21T10:04:56;98526.38;;;11.81;53.82
40918;BME280;26644;50.248;19.032;2024-02-21T10:08:02;98524.56;;;11.60;54.66
40918;BME280;26644;50.248;19.032;2024-02-21T10:11:10;98527.72;;;11.38;55.43
40918;BME280;26644;50.248;19.032;2024-02-21T10:14:15;98517.09;;;11.16;55.85
40918;BME280;26644;50.248;19.032;2024-02-21T10:17:20;98521.00;;;11.00;56.52
40918;BME280;26644;50.248;19.032;2024-02-21T10:20:26;98516.94;;;10.87;57.15
40918;BME280;26644;50.248;19.032;2024-02-21T10:23:41;98515.31;;;10.81;57.19
40918;BME280;26644;50.248;19.032;2024-02-21T10:26:58;98503.53;;;10.65;57.21
40918;BME280;26644;50.248;19.032;2024-02-21T10:30:06;98510.94;;;10.64;57.27
40918;BME280;26644;50.248;19.032;2024-02-21T10:33:15;98502.72;;;10.59;57.40
40918;BME280;26644;50.248;19.032;2024-02-21T10:36:22;98503.81;;;10.53;56.97
40918;BME280;26644;50.248;19.032;2024-02-21T10:39:28;98503.53;;;10.54;57.90
40918;BME280;26644;50.248;19.032;2024-02-21T10:42:37;98497.22;;;10.49;57.58
40918;BME280;26644;50.248;19.032;2024-02-21T10:45:45;98487.06;;;10.44;57.98
40918;BME280;26644;50.248;19.032;2024-02-21T10:49:02;98482.13;;;10.46;57.59
40918;BME280;26644;50.248;19.032;2024-02-21T10:52:20;98492.28;;;10.45;57.81
40918;BME280;26644;50.248;19.032;2024-02-21T10:55:38;98479.09;;;10.48;57.98
40918;BME280;26644;50.248;19.032;2024-02-21T10:58:52;98475.56;;;10.47;57.44
40918;BME280;26644;50.248;19.032;2024-02-21T11:01:58;98474.72;;;10.47;57.37
40918;BME280;26644;50.248;19.032;2024-02-21T11:05:04;98472.53;;;10.49;57.89
40918;BME280;26644;50.248;19.032;2024-02-21T11:08:11;98467.28;;;10.52;57.54
40918;BME280;26644;50.248;19.032;2024-02-21T11:11:18;98463.72;;;10.52;56.61
40918;BME280;26644;50.248;19.032;2024-02-21T11:14:27;98461.53;;;10.49;56.66
40918;BME280;26644;50.248;19.032;2024-02-21T11:17:34;98449.75;;;10.43;56.85
40918;BME280;26644;50.248;19.032;2024-02-21T11:20:39;98447.81;;;10.43;56.71
40918;BME280;26644;50.248;19.032;2024-02-21T11:23:54;98443.16;;;10.44;56.14
40918;BME280;26644;50.248;19.032;2024-02-21T11:27:08;98439.03;;;10.47;56.82
40918;BME280;26644;50.248;19.032;2024-02-21T11:30:17;98428.06;;;10.41;56.16
40918;BME280;26644;50.248;19.032;2024-02-21T11:33:23;98429.19;;;10.35;56.69
40918;BME280;26644;50.248;19.032;2024-02-21T11:36:28;98415.19;;;10.26;56.58
40918;BME280;26644;50.248;19.032;2024-02-21T11:39:33;98419.59;;;10.27;56.87
40918;BME280;26644;50.248;19.032;2024-02-21T11:42:38;98419.03;;;10.25;57.39
40918;BME280;26644;50.248;19.032;2024-02-21T11:45:45;98422.88;;;10.29;56.92
40918;BME280;26644;50.248;19.032;2024-02-21T11:48:50;98413.31;;;10.22;56.99
40918;BME280;26644;50.248;19.032;2024-02-21T11:52:03;98409.72;;;10.16;57.29
40918;BME280;26644;50.248;19.032;2024-02-21T11:55:09;98415.50;;;10.09;57.59
40918;BME280;26644;50.248;19.032;2024-02-21T11:58:14;98414.69;;;9.99;57.40
40918;BME280;26644;50.248;19.032;2024-02-21T12:01:22;98410.59;;;9.91;57.35
40918;BME280;26644;50.248;19.032;2024-02-21T12:04:28;98412.50;;;9.80;57.75
40918;BME280;26644;50.248;19.032;2024-02-21T12:07:35;98422.38;;;9.71;58.57
40918;BME280;26644;50.248;19.032;2024-02-21T12:10:42;98415.28;;;9.59;59.08
40918;BME280;26644;50.248;19.032;2024-02-21T12:13:59;98408.69;;;9.45;60.02
40918;BME280;26644;50.248;19.032;2024-02-21T12:17:08;98402.34;;;9.34;61.33
40918;BME280;26644;50.248;19.032;2024-02-21T12:20:14;98400.72;;;9.28;61.79
40918;BME280;26644;50.248;19.032;2024-02-21T12:23:18;98399.88;;;9.22;61.78
40918;BME280;26644;50.248;19.032;2024-02-21T12:26:23;98403.44;;;9.18;62.91
40918;BME280;26644;50.248;19.032;2024-02-21T12:29:28;98403.41;;;9.13;62.52
40918;BME280;26644;50.248;19.032;2024-02-21T12:32:35;98390.28;;;9.09;63.06
40918;BME280;26644;50.248;19.032;2024-02-21T12:35:40;98393.00;;;9.09;62.92
40918;BME280;26644;50.248;19.032;2024-02-21T12:38:45;98391.63;;;9.07;63.73
40918;BME280;26644;50.248;19.032;2024-02-21T12:41:49;98393.00;;;9.04;63.82
40918;BME280;26644;50.248;19.032;2024-02-21T12:44:55;98369.69;;;8.97;64.01
40918;BME280;26644;50.248;19.032;2024-02-21T12:48:02;98375.75;;;8.99;64.29
40918;BME280;26644;50.248;19.032;2024-02-21T12:51:08;98378.47;;;8.99;64.06
40918;BME280;26644;50.248;19.032;2024-02-21T12:54:13;98386.97;;;8.97;64.70
40918;BME280;26644;50.248;19.032;2024-02-21T12:57:18;98379.00;;;8.95;64.58
40918;BME280;26644;50.248;19.032;2024-02-21T13:00:23;98382.25;;;8.92;64.93
40918;BME280;26644;50.248;19.032;2024-02-21T13:03:32;98371.00;;;8.89;64.93
40918;BME280;26644;50.248;19.032;2024-02-21T13:06:36;98365.28;;;8.85;65.61
40918;BME280;26644;50.248;19.032;2024-02-21T13:09:41;98366.34;;;8.79;65.92
40918;BME280;26644;50.248;19.032;2024-02-21T13:12:45;98356.47;;;8.78;66.71
40918;BME280;26644;50.248;19.032;2024-02-21T13:15:50;98352.09;;;8.82;67.09
40918;BME280;26644;50.248;19.032;2024-02-21T13:18:57;98350.75;;;8.90;67.60
40918;BME280;26644;50.248;19.032;2024-02-21T13:22:03;98348.63;;;8.97;67.37
40918;BME280;26644;50.248;19.032;2024-02-21T13:25:08;98341.22;;;9.03;66.82
40918;BME280;26644;50.248;19.032;2024-02-21T13:28:16;98331.38;;;9.02;67.49
40918;BME280;26644;50.248;19.032;2024-02-21T13:31:20;98337.66;;;9.02;67.33
40918;BME280;26644;50.248;19.032;2024-02-21T13:34:29;98336.28;;;9.00;67.25
40918;BME280;26644;50.248;19.032;2024-02-21T13:37:33;98324.50;;;8.99;67.69
40918;BME280;26644;50.248;19.032;2024-02-21T13:40:38;98318.72;;;8.90;67.14
40918;BME280;26644;50.248;19.032;2024-02-21T13:43:43;98322.84;;;8.88;67.69
40918;BME280;26644;50.248;19.032;2024-02-21T13:46:48;98324.22;;;8.85;67.61
40918;BME280;26644;50.248;19.032;2024-02-21T13:49:55;98319.53;;;8.81;67.78
40918;BME280;26644;50.248;19.032;2024-02-21T13:53:00;98312.97;;;8.82;68.16
40918;BME280;26644;50.248;19.032;2024-02-21T13:56:04;98307.19;;;8.73;67.93
40918;BME280;26644;50.248;19.032;2024-02-21T13:59:11;98312.41;;;8.69;68.43
40918;BME280;26644;50.248;19.032;2024-02-21T14:02:15;98312.13;;;8.66;68.20
40918;BME280;26644;50.248;19.032;2024-02-21T14:05:23;98306.63;;;8.60;68.66
40918;BME280;26644;50.248;19.032;2024-02-21T14:08:27;98287.44;;;8.55;69.06
40918;BME280;26644;50.248;19.032;2024-02-21T14:11:33;98289.91;;;8.57;69.19
40918;BME280;26644;50.248;19.032;2024-02-21T14:14:38;98288.81;;;8.53;69.71
40918;BME280;26644;50.248;19.032;2024-02-21T14:17:44;98281.16;;;8.50;69.93
40918;BME280;26644;50.248;19.032;2024-02-21T14:20:51;98279.19;;;8.45;70.15
40918;BME280;26644;50.248;19.032;2024-02-21T14:23:56;98274.53;;;8.35;70.17
40918;BME280;26644;50.248;19.032;2024-02-21T14:27:04;98273.13;;;8.27;70.74
40918;BME280;26644;50.248;19.032;2024-02-21T14:30:10;98262.19;;;8.22;70.55
40918;BME280;26644;50.248;19.032;2024-02-21T14:33:15;98259.16;;;8.19;70.44
40918;BME280;26644;50.248;19.032;2024-02-21T14:36:22;98249.84;;;8.15;70.67
40918;BME280;26644;50.248;19.032;2024-02-21T14:39:27;98237.78;;;8.05;70.57
40918;BME280;26644;50.248;19.032;2024-02-21T14:42:32;98232.28;;;8.00;70.66
40918;BME280;26644;50.248;19.032;2024-02-21T14:45:36;98224.31;;;7.93;70.59
40918;BME280;26644;50.248;19.032;2024-02-21T14:48:41;98214.75;;;7.86;70.91
40918;BME280;26644;50.248;19.032;2024-02-21T14:51:49;98215.25;;;7.83;70.79
40918;BME280;26644;50.248;19.032;2024-02-21T14:54:54;98230.84;;;7.82;70.65
40918;BME280;26644;50.248;19.032;2024-02-21T14:57:58;98221.00;;;7.81;70.37
40918;BME280;26644;50.248;19.032;2024-02-21T15:01:29;98222.09;;;7.80;70.31
40918;BME280;26644;50.248;19.032;2024-02-21T15:04:43;98228.94;;;7.83;70.46
40918;BME280;26644;50.248;19.032;2024-02-21T15:07:51;98222.66;;;7.82;70.26
40918;BME280;26644;50.248;19.032;2024-02-21T15:10:56;98227.28;;;7.76;70.29
40918;BME280;26644;50.248;19.032;2024-02-21T15:14:01;98229.44;;;7.74;70.11
40918;BME280;26644;50.248;19.032;2024-02-21T15:17:05;98230.25;;;7.70;70.42
40918;BME280;26644;50.248;19.032;2024-02-21T15:20:11;98228.88;;;7.72;70.65
40918;BME280;26644;50.248;19.032;2024-02-21T15:23:18;98222.88;;;7.70;70.32
40918;BME280;26644;50.248;19.032;2024-02-21T15:26:25;98219.34;;;7.70;70.57
40918;BME280;26644;50.248;19.032;2024-02-21T15:29:29;98209.19;;;7.65;70.47
40918;BME280;26644;50.248;19.032;2024-02-21T15:32:37;98206.47;;;7.70;70.86
40918;BME280;26644;50.248;19.032;2024-02-21T15:35:44;98207.28;;;7.71;70.52
40918;BME280;26644;50.248;19.032;2024-02-21T15:38:52;98195.84;;;7.74;70.07
40918;BME280;26644;50.248;19.032;2024-02-21T15:42:00;98200.50;;;7.78;70.03
40918;BME280;26644;50.248;19.032;2024-02-21T15:45:05;98197.50;;;7.85;69.94
40918;BME280;26644;50.248;19.032;2024-02-21T15:48:10;98190.41;;;7.84;69.66
40918;BME280;26644;50.248;19.032;2024-02-21T15:51:16;98185.19;;;7.83;69.71
40918;BME280;26644;50.248;19.032;2024-02-21T15:54:23;98190.13;;;7.81;69.69
40918;BME280;26644;50.248;19.032;2024-02-21T15:57:29;98197.75;;;7.78;69.70
40918;BME280;26644;50.248;19.032;2024-02-21T16:00:33;98196.38;;;7.76;70.11
40918;BME280;26644;50.248;19.032;2024-02-21T16:03:38;98193.34;;;7.72;69.73
40918;BME280;26644;50.248;19.032;2024-02-21T16:06:44;98193.63;;;7.71;69.93
40918;BME280;26644;50.248;19.032;2024-02-21T16:09:55;98191.44;;;7.68;70.37
40918;BME280;26644;50.248;19.032;2024-02-21T16:13:01;98197.41;;;7.59;70.44
40918;BME280;26644;50.248;19.032;2024-02-21T16:16:08;98189.47;;;7.53;70.43
40918;BME280;26644;50.248;19.032;2024-02-21T16:19:12;98184.50;;;7.50;70.55
40918;BME280;26644;50.248;19.032;2024-02-21T16:22:17;98184.75;;;7.43;70.98